MSC Bremen — A8LK7 — position and weather

sailwx.info

Track history (hours):
 
Tides and Currents Weather Stations Pressure Air Temp Water Temp Dewpoint Dewpoint Depression Visibility Wind Speed Wind Dir Waves Ship Positions

MSC Bremen

Last reported at 2015-Mar-28 17:14 UTC. Time now 2015-Mar-30 05:50 UTC.
Position N 14°09' W 060°45'.

Length 294 m; ; draft 13.7 m.

Type: Ship (hazmat cat A). MMSI: 636091270.

Date/timePositionNaut miles runAvg speedWind from/ knotsBaromVisibWave heightAir tempDewpointWater temp
2015-Mar-28 17:14N 14°09' W 060°45'1116.4
2015-Mar-28 16:34N 14°13' W 060°56'1515.3
2015-Mar-28 15:33N 14°19' W 061°11'1515.0
2015-Mar-28 14:34N 14°24' W 061°25'1514.5
2015-Mar-28 13:31N 14°29' W 061°40'  
2015-Mar-23 18:03N 26°23' W 078°44'1 1.4
2015-Mar-23 17:32N 26°23' W 078°43'1310.2
2015-Mar-23 16:12N 26°17' W 078°30'3 1.0
2015-Mar-23 13:33N 26°19' W 078°32'1 0.9
2015-Mar-23 12:33N 26°20' W 078°33'1 0.9
2015-Mar-23 11:33N 26°21' W 078°33'1 1.0
2015-Mar-23 10:33N 26°21' W 078°34'1 0.9
2015-Mar-23 09:33N 26°22' W 078°35'1 0.9
2015-Mar-23 08:33N 26°22' W 078°35'1 0.8
2015-Mar-23 07:33N 26°23' W 078°36'1 0.7
2015-Mar-23 06:25N 26°23' W 078°37'6 1.3
2015-Mar-23 02:07N 26°26' W 078°43'915.7
2015-Mar-23 01:33N 26°23' W 078°33'2 0.3
2015-Mar-22 19:09N 26°25' W 078°35'3 0.4
2015-Mar-22 10:17N 26°25' W 078°38'0 0.4
2015-Mar-22 09:26N 26°25' W 078°39'1 0.5
2015-Mar-22 08:23N 26°25' W 078°39'23 2.1
2015-Mar-21 21:33N 26°35' W 079°02'1515.2
2015-Mar-21 20:33N 26°48' W 079°11'1414.3
2015-Mar-21 19:33N 27°01' W 079°19'1814.2
2015-Mar-21 18:16N 27°19' W 079°20'1114.2
2015-Mar-21 17:31N 27°29' W 079°21'1414.3
2015-Mar-21 16:33N 27°43' W 079°21'1614.3
2015-Mar-21 15:28N 27°59' W 079°21'1314.4
2015-Mar-21 14:33N 28°12' W 079°22'1414.4
2015-Mar-21 13:33N 28°26' W 079°23'21912.7
2015-Mar-20 20:17N 31°56' W 080°36'6 8.5
2015-Mar-20 19:33N 31°58' W 080°43'1111.5
2015-Mar-20 18:33N 32°03' W 080°56'9 9.0
2015-Mar-20 17:33N 32°05' W 081°06'3 2.9
2015-Mar-20 16:33N 32°07' W 081°08'0 0.0
2015-Mar-20 15:33N 32°07' W 081°08'0 0.0
2015-Mar-20 14:33N 32°07' W 081°08'0 0.0
2015-Mar-20 13:33N 32°07' W 081°08'0 0.0
2015-Mar-20 12:32N 32°07' W 081°08'0 0.0
2015-Mar-20 11:32N 32°07' W 081°08'0 0.0
2015-Mar-20 10:32N 32°07' W 081°08'0 0.0
2015-Mar-20 09:33N 32°07' W 081°08'0 0.0
2015-Mar-20 08:29N 32°07' W 081°08'0 0.0
2015-Mar-20 07:32N 32°07' W 081°08'0 0.0
2015-Mar-20 06:32N 32°07' W 081°08'0 0.0
2015-Mar-20 05:32N 32°07' W 081°08'0 0.0
2015-Mar-20 04:32N 32°07' W 081°08'0 0.0
2015-Mar-20 03:32N 32°07' W 081°08'0 0.0
2015-Mar-20 02:27N 32°07' W 081°08'0 0.0
2015-Mar-20 01:33N 32°07' W 081°08'0 0.0
2015-Mar-20 00:33N 32°07' W 081°08'0 0.0
2015-Mar-19 23:33N 32°07' W 081°08'0 0.0
2015-Mar-19 22:32N 32°07' W 081°08'0 0.0
2015-Mar-19 21:32N 32°07' W 081°08'0 0.5
2015-Mar-19 20:33N 32°08' W 081°08'5 4.9
2015-Mar-19 19:33N 32°05' W 081°04'9 8.6
2015-Mar-19 18:33N 32°02' W 080°54'1211.6
2015-Mar-19 17:34N 31°58' W 080°41'6 6.1
2015-Mar-19 16:34N 31°57' W 080°34'7 7.0
2015-Mar-19 15:34N 31°58' W 080°26'  
Track history (hours):
 
Tides and Currents Weather Stations Pressure Air Temp Water Temp Dewpoint Dewpoint Depression Visibility Wind Speed Wind Dir Waves Ship Positions

MSC Bremen

Last reported at 2015-Mar-28 17:14 UTC. Time now 2015-Mar-30 05:50 UTC.
Position N 14°09' W 060°45'.

Length 294 m; ; draft 13.7 m.

Type: Ship (hazmat cat A). MMSI: 636091270.

Date/timePositionNaut miles runAvg speedWind from/ knotsBaromVisibWave heightAir tempDewpointWater temp
2015-Mar-28 17:14N 14°09' W 060°45'1116.4
2015-Mar-28 16:34N 14°13' W 060°56'1515.3
2015-Mar-28 15:33N 14°19' W 061°11'1515.0
2015-Mar-28 14:34N 14°24' W 061°25'1514.5
2015-Mar-28 13:31N 14°29' W 061°40'  
2015-Mar-23 18:03N 26°23' W 078°44'1 1.4
2015-Mar-23 17:32N 26°23' W 078°43'1310.2
2015-Mar-23 16:12N 26°17' W 078°30'3 1.0
2015-Mar-23 13:33N 26°19' W 078°32'1 0.9
2015-Mar-23 12:33N 26°20' W 078°33'1 0.9
2015-Mar-23 11:33N 26°21' W 078°33'1 1.0
2015-Mar-23 10:33N 26°21' W 078°34'1 0.9
2015-Mar-23 09:33N 26°22' W 078°35'1 0.9
2015-Mar-23 08:33N 26°22' W 078°35'1 0.8
2015-Mar-23 07:33N 26°23' W 078°36'1 0.7
2015-Mar-23 06:25N 26°23' W 078°37'6 1.3
2015-Mar-23 02:07N 26°26' W 078°43'915.7
2015-Mar-23 01:33N 26°23' W 078°33'2 0.3
2015-Mar-22 19:09N 26°25' W 078°35'3 0.4
2015-Mar-22 10:17N 26°25' W 078°38'0 0.4
2015-Mar-22 09:26N 26°25' W 078°39'1 0.5
2015-Mar-22 08:23N 26°25' W 078°39'23 2.1
2015-Mar-21 21:33N 26°35' W 079°02'1515.2
2015-Mar-21 20:33N 26°48' W 079°11'1414.3
2015-Mar-21 19:33N 27°01' W 079°19'1814.2
2015-Mar-21 18:16N 27°19' W 079°20'1114.2
2015-Mar-21 17:31N 27°29' W 079°21'1414.3
2015-Mar-21 16:33N 27°43' W 079°21'1614.3
2015-Mar-21 15:28N 27°59' W 079°21'1314.4
2015-Mar-21 14:33N 28°12' W 079°22'1414.4
2015-Mar-21 13:33N 28°26' W 079°23'21912.7
2015-Mar-20 20:17N 31°56' W 080°36'6 8.5
2015-Mar-20 19:33N 31°58' W 080°43'1111.5
2015-Mar-20 18:33N 32°03' W 080°56'9 9.0
2015-Mar-20 17:33N 32°05' W 081°06'3 2.9
2015-Mar-20 16:33N 32°07' W 081°08'0 0.0
2015-Mar-20 15:33N 32°07' W 081°08'0 0.0
2015-Mar-20 14:33N 32°07' W 081°08'0 0.0
2015-Mar-20 13:33N 32°07' W 081°08'0 0.0
2015-Mar-20 12:32N 32°07' W 081°08'0 0.0
2015-Mar-20 11:32N 32°07' W 081°08'0 0.0
2015-Mar-20 10:32N 32°07' W 081°08'0 0.0
2015-Mar-20 09:33N 32°07' W 081°08'0 0.0
2015-Mar-20 08:29N 32°07' W 081°08'0 0.0
2015-Mar-20 07:32N 32°07' W 081°08'0 0.0
2015-Mar-20 06:32N 32°07' W 081°08'0 0.0
2015-Mar-20 05:32N 32°07' W 081°08'0 0.0
2015-Mar-20 04:32N 32°07' W 081°08'0 0.0
2015-Mar-20 03:32N 32°07' W 081°08'0 0.0
2015-Mar-20 02:27N 32°07' W 081°08'0 0.0
2015-Mar-20 01:33N 32°07' W 081°08'0 0.0
2015-Mar-20 00:33N 32°07' W 081°08'0 0.0
2015-Mar-19 23:33N 32°07' W 081°08'0 0.0
2015-Mar-19 22:32N 32°07' W 081°08'0 0.0
2015-Mar-19 21:32N 32°07' W 081°08'0 0.5
2015-Mar-19 20:33N 32°08' W 081°08'5 4.9
2015-Mar-19 19:33N 32°05' W 081°04'9 8.6
2015-Mar-19 18:33N 32°02' W 080°54'1211.6
2015-Mar-19 17:34N 31°58' W 080°41'6 6.1
2015-Mar-19 16:34N 31°57' W 080°34'7 7.0
2015-Mar-19 15:34N 31°58' W 080°26'  

Dump ship's entire track history